sensor_id;sensor_type;location;lat;lon;timestamp;P1;durP1;ratioP1;P2;durP2;ratioP2
13855;SDS011;6998;53.608;9.958;2022-09-09T00:00:53;41.00;;;32.80;;
13855;SDS011;6998;53.608;9.958;2022-09-09T00:03:26;34.08;;;27.92;;
13855;SDS011;6998;53.608;9.958;2022-09-09T00:05:58;33.22;;;26.73;;
13855;SDS011;6998;53.608;9.958;2022-09-09T00:08:32;35.90;;;28.63;;
13855;SDS011;6998;53.608;9.958;2022-09-09T00:11:05;38.30;;;29.80;;
13855;SDS011;6998;53.608;9.958;2022-09-09T00:13:33;37.75;;;29.25;;
13855;SDS011;6998;53.608;9.958;2022-09-09T00:16:06;34.67;;;27.92;;
13855;SDS011;6998;53.608;9.958;2022-09-09T00:18:41;30.88;;;26.17;;
13855;SDS011;6998;53.608;9.958;2022-09-09T00:21:17;35.30;;;27.95;;
13855;SDS011;6998;53.608;9.958;2022-09-09T00:23:45;34.90;;;27.15;;
13855;SDS011;6998;53.608;9.958;2022-09-09T00:26:18;33.38;;;27.25;;
13855;SDS011;6998;53.608;9.958;2022-09-09T00:28:50;25.20;;;22.45;;
13855;SDS011;6998;53.608;9.958;2022-09-09T00:31:26;21.33;;;18.45;;
13855;SDS011;6998;53.608;9.958;2022-09-09T00:33:55;24.98;;;22.00;;
13855;SDS011;6998;53.608;9.958;2022-09-09T00:36:30;21.88;;;19.58;;
13855;SDS011;6998;53.608;9.958;2022-09-09T00:39:00;25.60;;;22.58;;
13855;SDS011;6998;53.608;9.958;2022-09-09T00:41:29;26.85;;;23.83;;
13855;SDS011;6998;53.608;9.958;2022-09-09T00:44:12;29.65;;;25.73;;
13855;SDS011;6998;53.608;9.958;2022-09-09T00:46:50;22.88;;;20.50;;
13855;SDS011;6998;53.608;9.958;2022-09-09T00:49:32;25.30;;;22.73;;
13855;SDS011;6998;53.608;9.958;2022-09-09T00:52:12;24.40;;;21.83;;
13855;SDS011;6998;53.608;9.958;2022-09-09T00:54:51;26.75;;;23.90;;
13855;SDS011;6998;53.608;9.958;2022-09-09T00:57:27;24.50;;;21.83;;
13855;SDS011;6998;53.608;9.958;2022-09-09T00:59:57;26.77;;;23.80;;
13855;SDS011;6998;53.608;9.958;2022-09-09T01:02:43;24.08;;;21.48;;
13855;SDS011;6998;53.608;9.958;2022-09-09T01:05:19;25.27;;;22.60;;
13855;SDS011;6998;53.608;9.958;2022-09-09T01:07:54;24.40;;;21.77;;
13855;SDS011;6998;53.608;9.958;2022-09-09T01:10:26;25.80;;;22.95;;
13855;SDS011;6998;53.608;9.958;2022-09-09T01:12:58;26.30;;;23.00;;
13855;SDS011;6998;53.608;9.958;2022-09-09T01:15:29;37.65;;;29.13;;
13855;SDS011;6998;53.608;9.958;2022-09-09T01:17:59;28.30;;;23.20;;
13855;SDS011;6998;53.608;9.958;2022-09-09T01:20:31;24.33;;;21.40;;
13855;SDS011;6998;53.608;9.958;2022-09-09T01:23:19;25.42;;;22.70;;
13855;SDS011;6998;53.608;9.958;2022-09-09T01:28:56;29.23;;;24.38;;
13855;SDS011;6998;53.608;9.958;2022-09-09T01:31:26;32.22;;;26.35;;
13855;SDS011;6998;53.608;9.958;2022-09-09T01:33:56;27.02;;;24.10;;
13855;SDS011;6998;53.608;9.958;2022-09-09T01:36:24;32.58;;;25.67;;
13855;SDS011;6998;53.608;9.958;2022-09-09T01:38:55;27.80;;;23.40;;
13855;SDS011;6998;53.608;9.958;2022-09-09T01:41:22;27.35;;;23.63;;
13855;SDS011;6998;53.608;9.958;2022-09-09T01:43:52;29.63;;;25.20;;
13855;SDS011;6998;53.608;9.958;2022-09-09T01:46:20;32.30;;;27.15;;
13855;SDS011;6998;53.608;9.958;2022-09-09T01:48:48;34.70;;;26.67;;
13855;SDS011;6998;53.608;9.958;2022-09-09T01:51:16;32.72;;;27.10;;
13855;SDS011;6998;53.608;9.958;2022-09-09T01:53:43;30.25;;;24.88;;
13855;SDS011;6998;53.608;9.958;2022-09-09T01:56:13;26.17;;;22.52;;
13855;SDS011;6998;53.608;9.958;2022-09-09T01:58:55;26.83;;;23.30;;
13855;SDS011;6998;53.608;9.958;2022-09-09T02:01:34;27.02;;;24.13;;
13855;SDS011;6998;53.608;9.958;2022-09-09T02:04:11;26.30;;;23.48;;
13855;SDS011;6998;53.608;9.958;2022-09-09T02:06:48;31.45;;;24.45;;
13855;SDS011;6998;53.608;9.958;2022-09-09T02:09:20;29.25;;;25.13;;
13855;SDS011;6998;53.608;9.958;2022-09-09T02:11:50;29.90;;;26.45;;
13855;SDS011;6998;53.608;9.958;2022-09-09T02:14:27;28.40;;;23.00;;
13855;SDS011;6998;53.608;9.958;2022-09-09T02:16:59;26.63;;;22.80;;
13855;SDS011;6998;53.608;9.958;2022-09-09T02:19:29;28.35;;;23.88;;
13855;SDS011;6998;53.608;9.958;2022-09-09T02:22:00;25.48;;;21.73;;
13855;SDS011;6998;53.608;9.958;2022-09-09T02:24:29;24.27;;;20.77;;
13855;SDS011;6998;53.608;9.958;2022-09-09T02:26:58;22.85;;;20.05;;
13855;SDS011;6998;53.608;9.958;2022-09-09T02:29:32;25.10;;;21.25;;
13855;SDS011;6998;53.608;9.958;2022-09-09T02:32:04;26.65;;;20.88;;
13855;SDS011;6998;53.608;9.958;2022-09-09T02:34:34;26.02;;;22.30;;
13855;SDS011;6998;53.608;9.958;2022-09-09T02:37:04;25.00;;;21.35;;
13855;SDS011;6998;53.608;9.958;2022-09-09T02:39:34;22.35;;;19.85;;
13855;SDS011;6998;53.608;9.958;2022-09-09T02:42:01;21.30;;;18.23;;
13855;SDS011;6998;53.608;9.958;2022-09-09T02:44:29;20.10;;;17.88;;
13855;SDS011;6998;53.608;9.958;2022-09-09T02:47:07;20.45;;;18.33;;
13855;SDS011;6998;53.608;9.958;2022-09-09T02:49:43;19.48;;;17.42;;
13855;SDS011;6998;53.608;9.958;2022-09-09T02:52:18;21.60;;;19.33;;
13855;SDS011;6998;53.608;9.958;2022-09-09T02:54:50;22.13;;;18.02;;
13855;SDS011;6998;53.608;9.958;2022-09-09T02:57:26;19.73;;;17.55;;
13855;SDS011;6998;53.608;9.958;2022-09-09T02:59:57;20.48;;;18.33;;
13855;SDS011;6998;53.608;9.958;2022-09-09T03:02:26;22.92;;;19.73;;
13855;SDS011;6998;53.608;9.958;2022-09-09T03:04:53;19.23;;;17.23;;
13855;SDS011;6998;53.608;9.958;2022-09-09T03:07:20;21.65;;;19.25;;
13855;SDS011;6998;53.608;9.958;2022-09-09T03:09:47;18.15;;;16.10;;
13855;SDS011;6998;53.608;9.958;2022-09-09T03:12:14;16.92;;;15.13;;
13855;SDS011;6998;53.608;9.958;2022-09-09T03:14:41;20.20;;;17.00;;
13855;SDS011;6998;53.608;9.958;2022-09-09T03:17:10;19.60;;;17.52;;
13855;SDS011;6998;53.608;9.958;2022-09-09T03:19:38;19.02;;;17.00;;
13855;SDS011;6998;53.608;9.958;2022-09-09T03:22:06;22.38;;;19.92;;
13855;SDS011;6998;53.608;9.958;2022-09-09T03:24:34;20.58;;;17.35;;
13855;SDS011;6998;53.608;9.958;2022-09-09T03:27:01;18.27;;;16.27;;
13855;SDS011;6998;53.608;9.958;2022-09-09T03:29:28;18.88;;;16.88;;
13855;SDS011;6998;53.608;9.958;2022-09-09T03:31:55;18.00;;;16.17;;
13855;SDS011;6998;53.608;9.958;2022-09-09T03:34:22;24.38;;;19.63;;
13855;SDS011;6998;53.608;9.958;2022-09-09T03:36:50;20.83;;;17.83;;
13855;SDS011;6998;53.608;9.958;2022-09-09T03:39:17;19.60;;;17.50;;
13855;SDS011;6998;53.608;9.958;2022-09-09T03:41:43;19.33;;;16.65;;
13855;SDS011;6998;53.608;9.958;2022-09-09T03:44:12;17.77;;;15.90;;
13855;SDS011;6998;53.608;9.958;2022-09-09T03:46:39;19.45;;;17.27;;
13855;SDS011;6998;53.608;9.958;2022-09-09T03:49:06;16.48;;;14.70;;
13855;SDS011;6998;53.608;9.958;2022-09-09T03:51:34;18.13;;;16.23;;
13855;SDS011;6998;53.608;9.958;2022-09-09T03:54:03;18.80;;;16.80;;
13855;SDS011;6998;53.608;9.958;2022-09-09T03:56:30;17.35;;;15.55;;
13855;SDS011;6998;53.608;9.958;2022-09-09T03:58:57;17.63;;;15.60;;
13855;SDS011;6998;53.608;9.958;2022-09-09T04:01:23;16.55;;;14.82;;
13855;SDS011;6998;53.608;9.958;2022-09-09T04:03:50;18.02;;;16.05;;
13855;SDS011;6998;53.608;9.958;2022-09-09T04:06:17;19.15;;;17.17;;
13855;SDS011;6998;53.608;9.958;2022-09-09T04:08:46;16.05;;;14.35;;
13855;SDS011;6998;53.608;9.958;2022-09-09T04:11:15;17.60;;;15.35;;
13855;SDS011;6998;53.608;9.958;2022-09-09T04:13:42;17.13;;;15.40;;
13855;SDS011;6998;53.608;9.958;2022-09-09T04:16:09;18.60;;;16.70;;
13855;SDS011;6998;53.608;9.958;2022-09-09T04:18:38;17.90;;;16.00;;
13855;SDS011;6998;53.608;9.958;2022-09-09T04:21:05;18.25;;;15.60;;
13855;SDS011;6998;53.608;9.958;2022-09-09T04:23:33;18.05;;;16.15;;
13855;SDS011;6998;53.608;9.958;2022-09-09T04:26:01;16.35;;;14.52;;
13855;SDS011;6998;53.608;9.958;2022-09-09T04:28:31;16.40;;;14.68;;
13855;SDS011;6998;53.608;9.958;2022-09-09T04:31:03;15.88;;;13.82;;
13855;SDS011;6998;53.608;9.958;2022-09-09T04:33:30;16.52;;;14.88;;
13855;SDS011;6998;53.608;9.958;2022-09-09T04:35:57;15.75;;;14.00;;
13855;SDS011;6998;53.608;9.958;2022-09-09T04:38:24;16.83;;;15.05;;
13855;SDS011;6998;53.608;9.958;2022-09-09T04:40:52;14.90;;;13.45;;
13855;SDS011;6998;53.608;9.958;2022-09-09T04:43:19;19.88;;;16.98;;
13855;SDS011;6998;53.608;9.958;2022-09-09T04:45:48;18.42;;;16.50;;
13855;SDS011;6998;53.608;9.958;2022-09-09T04:48:16;16.42;;;14.65;;
13855;SDS011;6998;53.608;9.958;2022-09-09T04:50:43;17.30;;;15.43;;
13855;SDS011;6998;53.608;9.958;2022-09-09T04:53:10;19.88;;;16.73;;
13855;SDS011;6998;53.608;9.958;2022-09-09T04:55:37;21.00;;;16.55;;
13855;SDS011;6998;53.608;9.958;2022-09-09T04:58:03;19.85;;;16.65;;
13855;SDS011;6998;53.608;9.958;2022-09-09T05:00:31;19.98;;;17.70;;
13855;SDS011;6998;53.608;9.958;2022-09-09T05:03:01;18.77;;;16.77;;
13855;SDS011;6998;53.608;9.958;2022-09-09T05:05:29;15.85;;;14.15;;
13855;SDS011;6998;53.608;9.958;2022-09-09T05:08:00;17.65;;;15.77;;
13855;SDS011;6998;53.608;9.958;2022-09-09T05:10:27;17.77;;;15.90;;
13855;SDS011;6998;53.608;9.958;2022-09-09T05:12:54;15.00;;;13.48;;
13855;SDS011;6998;53.608;9.958;2022-09-09T05:15:21;17.15;;;15.18;;
13855;SDS011;6998;53.608;9.958;2022-09-09T05:17:48;16.23;;;14.63;;
13855;SDS011;6998;53.608;9.958;2022-09-09T05:20:18;14.45;;;12.95;;
13855;SDS011;6998;53.608;9.958;2022-09-09T05:22:46;17.65;;;14.75;;
13855;SDS011;6998;53.608;9.958;2022-09-09T05:25:13;14.82;;;13.23;;
13855;SDS011;6998;53.608;9.958;2022-09-09T05:27:39;14.65;;;13.20;;
13855;SDS011;6998;53.608;9.958;2022-09-09T05:30:07;16.50;;;13.95;;
13855;SDS011;6998;53.608;9.958;2022-09-09T05:32:34;15.15;;;13.52;;
13855;SDS011;6998;53.608;9.958;2022-09-09T05:35:01;13.77;;;12.27;;
13855;SDS011;6998;53.608;9.958;2022-09-09T05:37:31;13.95;;;12.55;;
13855;SDS011;6998;53.608;9.958;2022-09-09T05:39:58;11.57;;;10.48;;
13855;SDS011;6998;53.608;9.958;2022-09-09T05:42:29;12.75;;;11.30;;
13855;SDS011;6998;53.608;9.958;2022-09-09T05:44:56;13.15;;;11.85;;
13855;SDS011;6998;53.608;9.958;2022-09-09T05:47:23;14.60;;;13.10;;
13855;SDS011;6998;53.608;9.958;2022-09-09T05:49:52;16.52;;;14.20;;
13855;SDS011;6998;53.608;9.958;2022-09-09T05:52:20;13.15;;;11.75;;
13855;SDS011;6998;53.608;9.958;2022-09-09T05:54:48;14.55;;;13.05;;
13855;SDS011;6998;53.608;9.958;2022-09-09T05:57:15;14.30;;;12.90;;
13855;SDS011;6998;53.608;9.958;2022-09-09T05:59:44;13.18;;;11.95;;
13855;SDS011;6998;53.608;9.958;2022-09-09T06:02:11;13.80;;;12.40;;
13855;SDS011;6998;53.608;9.958;2022-09-09T06:04:38;12.35;;;11.18;;
13855;SDS011;6998;53.608;9.958;2022-09-09T06:07:05;16.15;;;13.40;;
13855;SDS011;6998;53.608;9.958;2022-09-09T06:09:32;18.52;;;14.20;;
13855;SDS011;6998;53.608;9.958;2022-09-09T06:12:00;16.27;;;14.02;;
13855;SDS011;6998;53.608;9.958;2022-09-09T06:14:27;16.58;;;13.07;;
13855;SDS011;6998;53.608;9.958;2022-09-09T06:16:53;14.70;;;12.45;;
13855;SDS011;6998;53.608;9.958;2022-09-09T06:19:21;16.10;;;11.98;;
13855;SDS011;6998;53.608;9.958;2022-09-09T06:21:49;13.27;;;11.98;;
13855;SDS011;6998;53.608;9.958;2022-09-09T06:24:16;14.35;;;12.00;;
13855;SDS011;6998;53.608;9.958;2022-09-09T06:26:44;12.02;;;10.82;;
13855;SDS011;6998;53.608;9.958;2022-09-09T06:29:16;12.98;;;10.40;;
13855;SDS011;6998;53.608;9.958;2022-09-09T06:31:43;13.52;;;11.20;;
13855;SDS011;6998;53.608;9.958;2022-09-09T06:34:09;13.55;;;10.73;;
13855;SDS011;6998;53.608;9.958;2022-09-09T06:36:37;11.27;;;8.98;;
13855;SDS011;6998;53.608;9.958;2022-09-09T06:39:05;10.55;;;9.45;;
13855;SDS011;6998;53.608;9.958;2022-09-09T06:41:33;8.80;;;7.88;;
13855;SDS011;6998;53.608;9.958;2022-09-09T06:44:00;9.93;;;8.90;;
13855;SDS011;6998;53.608;9.958;2022-09-09T06:46:29;11.98;;;9.63;;
13855;SDS011;6998;53.608;9.958;2022-09-09T06:48:58;10.48;;;9.45;;
13855;SDS011;6998;53.608;9.958;2022-09-09T06:51:25;12.48;;;9.88;;
13855;SDS011;6998;53.608;9.958;2022-09-09T06:53:54;9.52;;;8.52;;
13855;SDS011;6998;53.608;9.958;2022-09-09T06:56:23;10.80;;;9.70;;
13855;SDS011;6998;53.608;9.958;2022-09-09T06:58:52;9.70;;;8.68;;
13855;SDS011;6998;53.608;9.958;2022-09-09T07:01:20;10.40;;;9.18;;
13855;SDS011;6998;53.608;9.958;2022-09-09T07:03:50;11.63;;;8.25;;
13855;SDS011;6998;53.608;9.958;2022-09-09T07:06:18;10.95;;;8.70;;
13855;SDS011;6998;53.608;9.958;2022-09-09T07:08:48;10.23;;;8.40;;
13855;SDS011;6998;53.608;9.958;2022-09-09T07:11:16;8.77;;;8.02;;
13855;SDS011;6998;53.608;9.958;2022-09-09T07:13:44;9.65;;;7.85;;
13855;SDS011;6998;53.608;9.958;2022-09-09T07:16:11;8.45;;;7.65;;
13855;SDS011;6998;53.608;9.958;2022-09-09T07:18:39;8.40;;;7.53;;
13855;SDS011;6998;53.608;9.958;2022-09-09T07:21:08;12.73;;;9.00;;
13855;SDS011;6998;53.608;9.958;2022-09-09T07:23:37;8.65;;;7.72;;
13855;SDS011;6998;53.608;9.958;2022-09-09T07:26:07;9.50;;;6.63;;
13855;SDS011;6998;53.608;9.958;2022-09-09T07:28:34;11.00;;;7.03;;
13855;SDS011;6998;53.608;9.958;2022-09-09T07:31:02;7.05;;;6.10;;
13855;SDS011;6998;53.608;9.958;2022-09-09T07:33:30;6.45;;;5.88;;
13855;SDS011;6998;53.608;9.958;2022-09-09T07:36:01;8.68;;;5.97;;
13855;SDS011;6998;53.608;9.958;2022-09-09T07:38:32;6.28;;;5.57;;
13855;SDS011;6998;53.608;9.958;2022-09-09T07:41:03;6.55;;;5.18;;
13855;SDS011;6998;53.608;9.958;2022-09-09T07:43:32;5.60;;;4.63;;
13855;SDS011;6998;53.608;9.958;2022-09-09T07:45:58;7.47;;;4.53;;
13855;SDS011;6998;53.608;9.958;2022-09-09T07:48:26;7.72;;;3.80;;
13855;SDS011;6998;53.608;9.958;2022-09-09T07:51:02;4.70;;;3.83;;
13855;SDS011;6998;53.608;9.958;2022-09-09T07:53:32;5.15;;;3.75;;
13855;SDS011;6998;53.608;9.958;2022-09-09T07:56:02;5.35;;;3.75;;
13855;SDS011;6998;53.608;9.958;2022-09-09T07:58:29;5.82;;;3.78;;
13855;SDS011;6998;53.608;9.958;2022-09-09T08:00:56;7.00;;;4.22;;
13855;SDS011;6998;53.608;9.958;2022-09-09T08:03:23;6.72;;;4.05;;
13855;SDS011;6998;53.608;9.958;2022-09-09T08:05:50;5.18;;;3.55;;
13855;SDS011;6998;53.608;9.958;2022-09-09T08:08:16;4.97;;;3.67;;
13855;SDS011;6998;53.608;9.958;2022-09-09T08:10:44;6.30;;;4.00;;
13855;SDS011;6998;53.608;9.958;2022-09-09T08:13:11;7.47;;;4.18;;
13855;SDS011;6998;53.608;9.958;2022-09-09T08:15:39;5.28;;;4.05;;
13855;SDS011;6998;53.608;9.958;2022-09-09T08:18:06;5.10;;;3.75;;
13855;SDS011;6998;53.608;9.958;2022-09-09T08:20:35;4.57;;;3.97;;
13855;SDS011;6998;53.608;9.958;2022-09-09T08:23:02;5.95;;;3.83;;
13855;SDS011;6998;53.608;9.958;2022-09-09T08:25:29;6.60;;;3.83;;
13855;SDS011;6998;53.608;9.958;2022-09-09T08:28:01;4.38;;;3.22;;
13855;SDS011;6998;53.608;9.958;2022-09-09T08:30:28;5.93;;;3.60;;
13855;SDS011;6998;53.608;9.958;2022-09-09T08:32:55;6.00;;;3.45;;
13855;SDS011;6998;53.608;9.958;2022-09-09T08:35:23;6.13;;;3.47;;
13855;SDS011;6998;53.608;9.958;2022-09-09T08:37:53;5.03;;;3.53;;
13855;SDS011;6998;53.608;9.958;2022-09-09T08:40:21;3.75;;;3.30;;
13855;SDS011;6998;53.608;9.958;2022-09-09T08:42:55;5.97;;;3.58;;
13855;SDS011;6998;53.608;9.958;2022-09-09T08:45:31;4.53;;;3.25;;
13855;SDS011;6998;53.608;9.958;2022-09-09T08:48:08;4.30;;;3.22;;
13855;SDS011;6998;53.608;9.958;2022-09-09T08:50:44;4.45;;;2.70;;
13855;SDS011;6998;53.608;9.958;2022-09-09T08:53:16;4.13;;;2.70;;
13855;SDS011;6998;53.608;9.958;2022-09-09T08:55:47;5.53;;;2.85;;
13855;SDS011;6998;53.608;9.958;2022-09-09T08:58:16;4.03;;;2.33;;
13855;SDS011;6998;53.608;9.958;2022-09-09T09:00:47;4.25;;;2.53;;
13855;SDS011;6998;53.608;9.958;2022-09-09T09:03:50;2.95;;;2.05;;
13855;SDS011;6998;53.608;9.958;2022-09-09T09:06:26;3.55;;;2.20;;
13855;SDS011;6998;53.608;9.958;2022-09-09T09:09:02;3.10;;;2.20;;
13855;SDS011;6998;53.608;9.958;2022-09-09T09:11:35;3.08;;;2.20;;
13855;SDS011;6998;53.608;9.958;2022-09-09T09:14:07;3.97;;;2.10;;
13855;SDS011;6998;53.608;9.958;2022-09-09T09:16:38;5.85;;;2.08;;
13855;SDS011;6998;53.608;9.958;2022-09-09T09:19:13;3.13;;;1.70;;
13855;SDS011;6998;53.608;9.958;2022-09-09T09:21:42;3.45;;;1.80;;
13855;SDS011;6998;53.608;9.958;2022-09-09T09:24:13;2.92;;;1.60;;
13855;SDS011;6998;53.608;9.958;2022-09-09T09:26:44;3.80;;;1.83;;
13855;SDS011;6998;53.608;9.958;2022-09-09T09:29:13;2.22;;;1.80;;
13855;SDS011;6998;53.608;9.958;2022-09-09T09:31:42;3.20;;;1.35;;
13855;SDS011;6998;53.608;9.958;2022-09-09T09:34:13;2.97;;;1.52;;
13855;SDS011;6998;53.608;9.958;2022-09-09T09:36:41;1.98;;;1.20;;
13855;SDS011;6998;53.608;9.958;2022-09-09T09:39:21;4.22;;;1.30;;
13855;SDS011;6998;53.608;9.958;2022-09-09T09:41:49;4.93;;;1.40;;
13855;SDS011;6998;53.608;9.958;2022-09-09T09:44:28;3.95;;;1.40;;
13855;SDS011;6998;53.608;9.958;2022-09-09T09:47:06;2.25;;;1.50;;
13855;SDS011;6998;53.608;9.958;2022-09-09T09:49:56;3.05;;;1.48;;
13855;SDS011;6998;53.608;9.958;2022-09-09T09:52:26;3.20;;;1.70;;
13855;SDS011;6998;53.608;9.958;2022-09-09T09:54:57;3.50;;;2.10;;
13855;SDS011;6998;53.608;9.958;2022-09-09T09:57:26;2.13;;;1.52;;
13855;SDS011;6998;53.608;9.958;2022-09-09T10:00:03;3.72;;;1.70;;
13855;SDS011;6998;53.608;9.958;2022-09-09T10:02:38;3.53;;;1.77;;
13855;SDS011;6998;53.608;9.958;2022-09-09T10:05:12;3.13;;;1.50;;
13855;SDS011;6998;53.608;9.958;2022-09-09T10:07:41;3.72;;;1.60;;
13855;SDS011;6998;53.608;9.958;2022-09-09T10:10:11;4.53;;;1.88;;
13855;SDS011;6998;53.608;9.958;2022-09-09T10:12:47;3.13;;;1.77;;
13855;SDS011;6998;53.608;9.958;2022-09-09T10:15:29;4.57;;;1.88;;
13855;SDS011;6998;53.608;9.958;2022-09-09T10:18:07;4.15;;;1.63;;
13855;SDS011;6998;53.608;9.958;2022-09-09T10:20:52;3.10;;;1.70;;
13855;SDS011;6998;53.608;9.958;2022-09-09T10:23:28;3.42;;;1.77;;
13855;SDS011;6998;53.608;9.958;2022-09-09T10:26:09;3.75;;;1.60;;
13855;SDS011;6998;53.608;9.958;2022-09-09T10:28:55;4.03;;;1.67;;
13855;SDS011;6998;53.608;9.958;2022-09-09T10:31:33;2.38;;;1.40;;
13855;SDS011;6998;53.608;9.958;2022-09-09T10:34:10;4.10;;;1.50;;
13855;SDS011;6998;53.608;9.958;2022-09-09T10:36:46;2.95;;;1.40;;
13855;SDS011;6998;53.608;9.958;2022-09-09T10:39:16;2.55;;;1.50;;
13855;SDS011;6998;53.608;9.958;2022-09-09T10:41:54;3.67;;;1.45;;
13855;SDS011;6998;53.608;9.958;2022-09-09T10:44:33;2.70;;;1.20;;
13855;SDS011;6998;53.608;9.958;2022-09-09T10:47:20;2.60;;;1.67;;
13855;SDS011;6998;53.608;9.958;2022-09-09T10:50:18;3.80;;;1.60;;
13855;SDS011;6998;53.608;9.958;2022-09-09T10:52:57;2.75;;;1.50;;
13855;SDS011;6998;53.608;9.958;2022-09-09T10:55:35;6.60;;;1.80;;
13855;SDS011;6998;53.608;9.958;2022-09-09T10:58:05;3.80;;;1.70;;
13855;SDS011;6998;53.608;9.958;2022-09-09T11:00:39;2.92;;;1.65;;
13855;SDS011;6998;53.608;9.958;2022-09-09T11:03:13;3.13;;;1.60;;
13855;SDS011;6998;53.608;9.958;2022-09-09T11:05:46;3.60;;;1.55;;
13855;SDS011;6998;53.608;9.958;2022-09-09T11:08:18;1.38;;;1.23;;
13855;SDS011;6998;53.608;9.958;2022-09-09T11:10:46;4.18;;;1.63;;
13855;SDS011;6998;53.608;9.958;2022-09-09T11:13:21;3.15;;;1.70;;
13855;SDS011;6998;53.608;9.958;2022-09-09T11:15:52;2.85;;;1.50;;
13855;SDS011;6998;53.608;9.958;2022-09-09T11:18:26;2.63;;;1.50;;
13855;SDS011;6998;53.608;9.958;2022-09-09T11:20:58;5.78;;;1.60;;
13855;SDS011;6998;53.608;9.958;2022-09-09T11:23:29;2.90;;;1.20;;
13855;SDS011;6998;53.608;9.958;2022-09-09T11:26:05;2.13;;;1.45;;
13855;SDS011;6998;53.608;9.958;2022-09-09T11:28:39;3.17;;;1.60;;
13855;SDS011;6998;53.608;9.958;2022-09-09T11:31:17;4.78;;;1.70;;
13855;SDS011;6998;53.608;9.958;2022-09-09T11:34:06;6.18;;;1.30;;
13855;SDS011;6998;53.608;9.958;2022-09-09T11:36:54;2.35;;;1.35;;
13855;SDS011;6998;53.608;9.958;2022-09-09T11:39:36;5.93;;;1.48;;
13855;SDS011;6998;53.608;9.958;2022-09-09T11:42:15;2.25;;;1.00;;
13855;SDS011;6998;53.608;9.958;2022-09-09T11:44:44;2.58;;;1.30;;
13855;SDS011;6998;53.608;9.958;2022-09-09T11:47:19;5.18;;;1.65;;
13855;SDS011;6998;53.608;9.958;2022-09-09T11:49:51;2.95;;;1.23;;
13855;SDS011;6998;53.608;9.958;2022-09-09T11:52:20;3.85;;;1.30;;
13855;SDS011;6998;53.608;9.958;2022-09-09T11:54:50;4.50;;;1.60;;
13855;SDS011;6998;53.608;9.958;2022-09-09T11:57:22;2.40;;;1.30;;
13855;SDS011;6998;53.608;9.958;2022-09-09T11:59:51;1.80;;;1.15;;
13855;SDS011;6998;53.608;9.958;2022-09-09T12:02:22;2.45;;;1.33;;
13855;SDS011;6998;53.608;9.958;2022-09-09T12:04:56;1.45;;;1.17;;
13855;SDS011;6998;53.608;9.958;2022-09-09T12:07:34;2.78;;;1.58;;
13855;SDS011;6998;53.608;9.958;2022-09-09T12:10:04;2.42;;;1.55;;
13855;SDS011;6998;53.608;9.958;2022-09-09T12:12:45;2.15;;;1.50;;
13855;SDS011;6998;53.608;9.958;2022-09-09T12:15:20;4.35;;;1.70;;
13855;SDS011;6998;53.608;9.958;2022-09-09T12:17:49;5.25;;;1.65;;
13855;SDS011;6998;53.608;9.958;2022-09-09T12:20:22;3.67;;;1.80;;
13855;SDS011;6998;53.608;9.958;2022-09-09T12:23:03;2.63;;;1.30;;
13855;SDS011;6998;53.608;9.958;2022-09-09T12:25:56;4.30;;;1.73;;
13855;SDS011;6998;53.608;9.958;2022-09-09T12:28:41;2.95;;;1.60;;
13855;SDS011;6998;53.608;9.958;2022-09-09T12:31:21;5.32;;;2.28;;
13855;SDS011;6998;53.608;9.958;2022-09-09T12:33:51;4.68;;;2.03;;
13855;SDS011;6998;53.608;9.958;2022-09-09T12:36:21;3.53;;;1.67;;
13855;SDS011;6998;53.608;9.958;2022-09-09T12:38:50;2.85;;;1.80;;
13855;SDS011;6998;53.608;9.958;2022-09-09T12:41:19;2.83;;;1.95;;
13855;SDS011;6998;53.608;9.958;2022-09-09T12:43:47;6.25;;;2.53;;
13855;SDS011;6998;53.608;9.958;2022-09-09T12:46:16;5.45;;;2.40;;
13855;SDS011;6998;53.608;9.958;2022-09-09T12:48:53;4.25;;;1.98;;
13855;SDS011;6998;53.608;9.958;2022-09-09T12:51:23;3.88;;;2.10;;
13855;SDS011;6998;53.608;9.958;2022-09-09T12:53:52;5.10;;;2.55;;
13855;SDS011;6998;53.608;9.958;2022-09-09T12:56:20;3.80;;;2.15;;
13855;SDS011;6998;53.608;9.958;2022-09-09T12:58:48;5.50;;;2.63;;
13855;SDS011;6998;53.608;9.958;2022-09-09T13:01:20;4.70;;;2.35;;
13855;SDS011;6998;53.608;9.958;2022-09-09T13:03:49;4.80;;;2.38;;
13855;SDS011;6998;53.608;9.958;2022-09-09T13:06:19;3.63;;;2.10;;
13855;SDS011;6998;53.608;9.958;2022-09-09T13:08:49;3.78;;;2.13;;
13855;SDS011;6998;53.608;9.958;2022-09-09T13:11:16;6.07;;;2.13;;
13855;SDS011;6998;53.608;9.958;2022-09-09T13:13:50;4.93;;;2.65;;
13855;SDS011;6998;53.608;9.958;2022-09-09T13:16:19;5.25;;;2.90;;
13855;SDS011;6998;53.608;9.958;2022-09-09T13:18:48;4.53;;;2.70;;
13855;SDS011;6998;53.608;9.958;2022-09-09T13:21:15;6.38;;;3.47;;
13855;SDS011;6998;53.608;9.958;2022-09-09T13:23:42;7.15;;;3.05;;
13855;SDS011;6998;53.608;9.958;2022-09-09T13:26:20;6.40;;;3.28;;
13855;SDS011;6998;53.608;9.958;2022-09-09T13:28:50;10.32;;;3.90;;
13855;SDS011;6998;53.608;9.958;2022-09-09T13:31:19;6.45;;;3.58;;
13855;SDS011;6998;53.608;9.958;2022-09-09T13:33:47;12.63;;;5.40;;
13855;SDS011;6998;53.608;9.958;2022-09-09T13:36:14;10.60;;;4.72;;
13855;SDS011;6998;53.608;9.958;2022-09-09T13:38:52;7.20;;;3.10;;
13855;SDS011;6998;53.608;9.958;2022-09-09T13:41:21;6.40;;;2.83;;
13855;SDS011;6998;53.608;9.958;2022-09-09T13:43:49;5.72;;;2.60;;
13855;SDS011;6998;53.608;9.958;2022-09-09T13:46:28;5.85;;;2.63;;
13855;SDS011;6998;53.608;9.958;2022-09-09T13:48:59;4.47;;;2.00;;
13855;SDS011;6998;53.608;9.958;2022-09-09T13:51:34;6.28;;;2.13;;
13855;SDS011;6998;53.608;9.958;2022-09-09T13:54:04;3.63;;;2.00;;
13855;SDS011;6998;53.608;9.958;2022-09-09T13:56:32;5.50;;;2.88;;
13855;SDS011;6998;53.608;9.958;2022-09-09T13:58:59;6.10;;;2.78;;
13855;SDS011;6998;53.608;9.958;2022-09-09T14:01:26;5.88;;;2.85;;
13855;SDS011;6998;53.608;9.958;2022-09-09T14:03:53;5.80;;;2.95;;
13855;SDS011;6998;53.608;9.958;2022-09-09T14:06:20;7.38;;;3.80;;
13855;SDS011;6998;53.608;9.958;2022-09-09T14:08:48;9.77;;;4.50;;
13855;SDS011;6998;53.608;9.958;2022-09-09T14:11:17;7.90;;;4.05;;
13855;SDS011;6998;53.608;9.958;2022-09-09T14:13:44;6.57;;;4.30;;
13855;SDS011;6998;53.608;9.958;2022-09-09T14:16:11;8.30;;;3.97;;
13855;SDS011;6998;53.608;9.958;2022-09-09T14:18:38;6.43;;;3.58;;
13855;SDS011;6998;53.608;9.958;2022-09-09T14:21:05;7.10;;;3.75;;
13855;SDS011;6998;53.608;9.958;2022-09-09T14:23:33;7.28;;;4.13;;
13855;SDS011;6998;53.608;9.958;2022-09-09T14:26:00;6.13;;;3.30;;
13855;SDS011;6998;53.608;9.958;2022-09-09T14:28:28;5.28;;;3.65;;
13855;SDS011;6998;53.608;9.958;2022-09-09T14:30:58;6.47;;;3.65;;
13855;SDS011;6998;53.608;9.958;2022-09-09T14:33:25;4.07;;;3.35;;
13855;SDS011;6998;53.608;9.958;2022-09-09T14:35:55;4.55;;;3.30;;
13855;SDS011;6998;53.608;9.958;2022-09-09T14:38:22;5.72;;;3.70;;
13855;SDS011;6998;53.608;9.958;2022-09-09T14:40:49;4.85;;;3.40;;
13855;SDS011;6998;53.608;9.958;2022-09-09T14:43:15;4.82;;;3.70;;
13855;SDS011;6998;53.608;9.958;2022-09-09T14:45:43;4.10;;;3.13;;
13855;SDS011;6998;53.608;9.958;2022-09-09T14:48:10;6.95;;;3.80;;
13855;SDS011;6998;53.608;9.958;2022-09-09T14:50:38;5.57;;;3.65;;
13855;SDS011;6998;53.608;9.958;2022-09-09T14:53:05;5.18;;;2.92;;
13855;SDS011;6998;53.608;9.958;2022-09-09T14:55:32;5.28;;;3.60;;
13855;SDS011;6998;53.608;9.958;2022-09-09T14:57:59;5.05;;;3.15;;
13855;SDS011;6998;53.608;9.958;2022-09-09T15:00:25;5.88;;;3.13;;
13855;SDS011;6998;53.608;9.958;2022-09-09T15:02:54;5.55;;;3.50;;
13855;SDS011;6998;53.608;9.958;2022-09-09T15:05:21;4.53;;;2.75;;
13855;SDS011;6998;53.608;9.958;2022-09-09T15:07:49;5.45;;;2.95;;
13855;SDS011;6998;53.608;9.958;2022-09-09T15:10:16;4.20;;;3.15;;
13855;SDS011;6998;53.608;9.958;2022-09-09T15:12:43;3.55;;;2.60;;